sensor_id;sensor_type;location;lat;lon;timestamp;P1;durP1;ratioP1;P2;durP2;ratioP2
16826;SDS011;8530;49.540;8.576;2022-09-12T00:02:10;12.70;;;11.37;;
16826;SDS011;8530;49.540;8.576;2022-09-12T00:04:36;14.90;;;12.70;;
16826;SDS011;8530;49.540;8.576;2022-09-12T00:07:03;13.43;;;10.80;;
16826;SDS011;8530;49.540;8.576;2022-09-12T00:09:30;11.47;;;9.87;;
16826;SDS011;8530;49.540;8.576;2022-09-12T00:11:58;13.53;;;11.63;;
16826;SDS011;8530;49.540;8.576;2022-09-12T00:14:24;11.67;;;10.47;;
16826;SDS011;8530;49.540;8.576;2022-09-12T00:16:51;10.97;;;9.77;;
16826;SDS011;8530;49.540;8.576;2022-09-12T00:19:18;10.80;;;9.70;;
16826;SDS011;8530;49.540;8.576;2022-09-12T00:21:44;11.63;;;10.40;;
16826;SDS011;8530;49.540;8.576;2022-09-12T00:24:11;14.93;;;11.30;;
16826;SDS011;8530;49.540;8.576;2022-09-12T00:26:38;11.17;;;10.00;;
16826;SDS011;8530;49.540;8.576;2022-09-12T00:29:06;11.23;;;10.03;;
16826;SDS011;8530;49.540;8.576;2022-09-12T00:31:33;11.70;;;10.50;;
16826;SDS011;8530;49.540;8.576;2022-09-12T00:33:59;16.13;;;11.53;;
16826;SDS011;8530;49.540;8.576;2022-09-12T00:36:26;12.50;;;11.20;;
16826;SDS011;8530;49.540;8.576;2022-09-12T00:38:54;14.63;;;11.70;;
16826;SDS011;8530;49.540;8.576;2022-09-12T00:41:22;13.43;;;10.80;;
16826;SDS011;8530;49.540;8.576;2022-09-12T00:43:50;10.47;;;9.37;;
16826;SDS011;8530;49.540;8.576;2022-09-12T00:46:24;12.47;;;11.27;;
16826;SDS011;8530;49.540;8.576;2022-09-12T00:49:00;10.10;;;9.10;;
16826;SDS011;8530;49.540;8.576;2022-09-12T00:51:32;14.07;;;11.80;;
16826;SDS011;8530;49.540;8.576;2022-09-12T00:54:02;13.67;;;12.27;;
16826;SDS011;8530;49.540;8.576;2022-09-12T00:56:33;12.97;;;11.60;;
16826;SDS011;8530;49.540;8.576;2022-09-12T00:59:01;11.17;;;9.97;;
16826;SDS011;8530;49.540;8.576;2022-09-12T01:01:33;13.17;;;11.77;;
16826;SDS011;8530;49.540;8.576;2022-09-12T01:04:01;14.10;;;12.10;;
16826;SDS011;8530;49.540;8.576;2022-09-12T01:06:29;12.53;;;9.43;;
16826;SDS011;8530;49.540;8.576;2022-09-12T01:09:00;12.87;;;11.57;;
16826;SDS011;8530;49.540;8.576;2022-09-12T01:11:29;14.37;;;11.10;;
16826;SDS011;8530;49.540;8.576;2022-09-12T01:13:56;13.90;;;12.47;;
16826;SDS011;8530;49.540;8.576;2022-09-12T01:16:24;14.70;;;12.47;;
16826;SDS011;8530;49.540;8.576;2022-09-12T01:18:57;15.67;;;12.10;;
16826;SDS011;8530;49.540;8.576;2022-09-12T01:21:35;16.13;;;12.80;;
16826;SDS011;8530;49.540;8.576;2022-09-12T01:24:32;15.23;;;11.57;;
16826;SDS011;8530;49.540;8.576;2022-09-12T01:27:18;14.20;;;12.20;;
16826;SDS011;8530;49.540;8.576;2022-09-12T01:30:16;12.00;;;10.80;;
16826;SDS011;8530;49.540;8.576;2022-09-12T01:32:49;15.43;;;10.50;;
16826;SDS011;8530;49.540;8.576;2022-09-12T01:35:35;12.63;;;11.33;;
16826;SDS011;8530;49.540;8.576;2022-09-12T01:38:11;12.50;;;11.10;;
16826;SDS011;8530;49.540;8.576;2022-09-12T01:40:48;14.73;;;12.60;;
16826;SDS011;8530;49.540;8.576;2022-09-12T01:43:21;12.97;;;11.60;;
16826;SDS011;8530;49.540;8.576;2022-09-12T01:45:57;13.07;;;11.20;;
16826;SDS011;8530;49.540;8.576;2022-09-12T01:48:28;15.27;;;12.17;;
16826;SDS011;8530;49.540;8.576;2022-09-12T01:51:01;14.37;;;12.50;;
16826;SDS011;8530;49.540;8.576;2022-09-12T01:53:34;18.37;;;12.03;;
16826;SDS011;8530;49.540;8.576;2022-09-12T01:56:05;20.10;;;13.70;;
16826;SDS011;8530;49.540;8.576;2022-09-12T01:58:37;13.33;;;10.90;;
16826;SDS011;8530;49.540;8.576;2022-09-12T02:01:12;11.97;;;10.67;;
16826;SDS011;8530;49.540;8.576;2022-09-12T02:03:42;19.47;;;12.10;;
16826;SDS011;8530;49.540;8.576;2022-09-12T02:06:15;16.43;;;12.70;;
16826;SDS011;8530;49.540;8.576;2022-09-12T02:08:46;15.53;;;11.80;;
16826;SDS011;8530;49.540;8.576;2022-09-12T02:11:16;14.50;;;12.90;;
16826;SDS011;8530;49.540;8.576;2022-09-12T02:13:45;13.87;;;12.47;;
16826;SDS011;8530;49.540;8.576;2022-09-12T02:16:19;12.23;;;11.03;;
16826;SDS011;8530;49.540;8.576;2022-09-12T02:18:51;11.50;;;10.30;;
16826;SDS011;8530;49.540;8.576;2022-09-12T02:21:20;16.73;;;11.97;;
16826;SDS011;8530;49.540;8.576;2022-09-12T02:23:52;12.83;;;11.23;;
16826;SDS011;8530;49.540;8.576;2022-09-12T02:26:22;14.00;;;12.47;;
16826;SDS011;8530;49.540;8.576;2022-09-12T02:28:54;14.87;;;11.80;;
16826;SDS011;8530;49.540;8.576;2022-09-12T02:31:23;15.00;;;12.13;;
16826;SDS011;8530;49.540;8.576;2022-09-12T02:34:01;19.50;;;13.03;;
16826;SDS011;8530;49.540;8.576;2022-09-12T02:36:37;12.10;;;11.00;;
16826;SDS011;8530;49.540;8.576;2022-09-12T02:39:13;12.57;;;11.23;;
16826;SDS011;8530;49.540;8.576;2022-09-12T02:41:43;15.23;;;13.13;;
16826;SDS011;8530;49.540;8.576;2022-09-12T02:44:10;14.80;;;12.77;;
16826;SDS011;8530;49.540;8.576;2022-09-12T02:46:40;17.33;;;12.30;;
16826;SDS011;8530;49.540;8.576;2022-09-12T02:49:10;17.60;;;14.90;;
16826;SDS011;8530;49.540;8.576;2022-09-12T02:51:37;16.80;;;14.77;;
16826;SDS011;8530;49.540;8.576;2022-09-12T02:54:03;15.20;;;13.60;;
16826;SDS011;8530;49.540;8.576;2022-09-12T02:56:31;17.60;;;14.33;;
16826;SDS011;8530;49.540;8.576;2022-09-12T02:58:59;18.53;;;15.43;;
16826;SDS011;8530;49.540;8.576;2022-09-12T03:01:43;17.87;;;14.60;;
16826;SDS011;8530;49.540;8.576;2022-09-12T03:04:38;20.83;;;15.30;;
16826;SDS011;8530;49.540;8.576;2022-09-12T03:07:15;19.63;;;15.50;;
16826;SDS011;8530;49.540;8.576;2022-09-12T03:09:51;15.87;;;13.03;;
16826;SDS011;8530;49.540;8.576;2022-09-12T03:12:31;18.60;;;13.00;;
16826;SDS011;8530;49.540;8.576;2022-09-12T03:18:05;15.93;;;12.67;;
16826;SDS011;8530;49.540;8.576;2022-09-12T03:20:43;21.93;;;17.30;;
16826;SDS011;8530;49.540;8.576;2022-09-12T03:23:18;16.87;;;15.00;;
16826;SDS011;8530;49.540;8.576;2022-09-12T03:25:52;16.13;;;13.70;;
16826;SDS011;8530;49.540;8.576;2022-09-12T03:28:23;18.53;;;14.07;;
16826;SDS011;8530;49.540;8.576;2022-09-12T03:30:50;18.67;;;13.70;;
16826;SDS011;8530;49.540;8.576;2022-09-12T03:33:21;14.13;;;12.63;;
16826;SDS011;8530;49.540;8.576;2022-09-12T03:35:49;15.03;;;12.57;;
16826;SDS011;8530;49.540;8.576;2022-09-12T03:38:17;13.27;;;11.33;;
16826;SDS011;8530;49.540;8.576;2022-09-12T03:40:44;13.53;;;11.60;;
16826;SDS011;8530;49.540;8.576;2022-09-12T03:43:11;12.80;;;10.93;;
16826;SDS011;8530;49.540;8.576;2022-09-12T03:45:38;16.43;;;12.93;;
16826;SDS011;8530;49.540;8.576;2022-09-12T03:48:05;14.63;;;12.57;;
16826;SDS011;8530;49.540;8.576;2022-09-12T03:50:33;21.30;;;13.07;;
16826;SDS011;8530;49.540;8.576;2022-09-12T03:53:00;15.07;;;13.00;;
16826;SDS011;8530;49.540;8.576;2022-09-12T03:55:27;16.03;;;13.20;;
16826;SDS011;8530;49.540;8.576;2022-09-12T03:57:55;17.00;;;13.43;;
16826;SDS011;8530;49.540;8.576;2022-09-12T04:00:22;15.80;;;12.87;;
16826;SDS011;8530;49.540;8.576;2022-09-12T04:02:52;14.27;;;12.73;;
16826;SDS011;8530;49.540;8.576;2022-09-12T04:05:19;17.10;;;11.43;;
16826;SDS011;8530;49.540;8.576;2022-09-12T04:07:47;13.20;;;10.57;;
16826;SDS011;8530;49.540;8.576;2022-09-12T04:10:14;12.40;;;11.10;;
16826;SDS011;8530;49.540;8.576;2022-09-12T04:12:41;12.60;;;10.50;;
16826;SDS011;8530;49.540;8.576;2022-09-12T04:15:08;12.77;;;11.47;;
16826;SDS011;8530;49.540;8.576;2022-09-12T04:17:35;11.50;;;9.77;;
16826;SDS011;8530;49.540;8.576;2022-09-12T04:20:02;14.97;;;11.10;;
16826;SDS011;8530;49.540;8.576;2022-09-12T04:22:30;13.80;;;10.90;;
16826;SDS011;8530;49.540;8.576;2022-09-12T04:24:59;15.70;;;10.67;;
16826;SDS011;8530;49.540;8.576;2022-09-12T04:27:26;18.60;;;10.70;;
16826;SDS011;8530;49.540;8.576;2022-09-12T04:29:53;13.17;;;10.97;;
16826;SDS011;8530;49.540;8.576;2022-09-12T04:32:20;14.77;;;11.97;;
16826;SDS011;8530;49.540;8.576;2022-09-12T04:34:47;13.03;;;10.20;;
16826;SDS011;8530;49.540;8.576;2022-09-12T04:37:14;16.90;;;11.57;;
16826;SDS011;8530;49.540;8.576;2022-09-12T04:39:40;18.90;;;11.40;;
16826;SDS011;8530;49.540;8.576;2022-09-12T04:42:08;11.80;;;9.83;;
16826;SDS011;8530;49.540;8.576;2022-09-12T04:44:35;14.83;;;10.87;;
16826;SDS011;8530;49.540;8.576;2022-09-12T04:47:02;16.47;;;12.30;;
16826;SDS011;8530;49.540;8.576;2022-09-12T04:49:29;17.03;;;11.27;;
16826;SDS011;8530;49.540;8.576;2022-09-12T04:51:56;14.13;;;10.83;;
16826;SDS011;8530;49.540;8.576;2022-09-12T04:54:24;12.73;;;10.13;;
16826;SDS011;8530;49.540;8.576;2022-09-12T04:56:51;13.87;;;11.37;;
16826;SDS011;8530;49.540;8.576;2022-09-12T04:59:20;15.67;;;12.07;;
16826;SDS011;8530;49.540;8.576;2022-09-12T05:01:47;14.60;;;12.27;;
16826;SDS011;8530;49.540;8.576;2022-09-12T05:04:14;13.90;;;10.20;;
16826;SDS011;8530;49.540;8.576;2022-09-12T05:06:41;13.50;;;11.63;;
16826;SDS011;8530;49.540;8.576;2022-09-12T05:09:09;13.43;;;11.53;;
16826;SDS011;8530;49.540;8.576;2022-09-12T05:11:38;17.37;;;13.83;;
16826;SDS011;8530;49.540;8.576;2022-09-12T05:14:07;15.53;;;13.83;;
16826;SDS011;8530;49.540;8.576;2022-09-12T05:16:35;16.37;;;13.03;;
16826;SDS011;8530;49.540;8.576;2022-09-12T05:19:02;13.47;;;11.63;;
16826;SDS011;8530;49.540;8.576;2022-09-12T05:21:29;17.40;;;13.83;;
16826;SDS011;8530;49.540;8.576;2022-09-12T05:23:56;15.83;;;12.57;;
16826;SDS011;8530;49.540;8.576;2022-09-12T05:26:23;18.73;;;14.37;;
16826;SDS011;8530;49.540;8.576;2022-09-12T05:28:51;14.03;;;12.20;;
16826;SDS011;8530;49.540;8.576;2022-09-12T05:31:18;16.53;;;11.73;;
16826;SDS011;8530;49.540;8.576;2022-09-12T05:33:48;15.40;;;12.80;;
16826;SDS011;8530;49.540;8.576;2022-09-12T05:36:16;17.67;;;13.03;;
16826;SDS011;8530;49.540;8.576;2022-09-12T05:38:44;19.13;;;12.13;;
16826;SDS011;8530;49.540;8.576;2022-09-12T05:41:12;15.93;;;11.93;;
16826;SDS011;8530;49.540;8.576;2022-09-12T05:43:40;17.83;;;12.97;;
16826;SDS011;8530;49.540;8.576;2022-09-12T05:46:08;19.10;;;12.47;;
16826;SDS011;8530;49.540;8.576;2022-09-12T05:48:37;19.37;;;12.10;;
16826;SDS011;8530;49.540;8.576;2022-09-12T05:51:07;15.53;;;12.10;;
16826;SDS011;8530;49.540;8.576;2022-09-12T05:53:34;14.27;;;11.87;;
16826;SDS011;8530;49.540;8.576;2022-09-12T05:56:06;16.27;;;13.27;;
16826;SDS011;8530;49.540;8.576;2022-09-12T05:58:34;15.20;;;11.97;;
16826;SDS011;8530;49.540;8.576;2022-09-12T06:01:03;16.00;;;13.27;;
16826;SDS011;8530;49.540;8.576;2022-09-12T06:03:32;14.43;;;12.93;;
16826;SDS011;8530;49.540;8.576;2022-09-12T06:06:02;14.03;;;12.43;;
16826;SDS011;8530;49.540;8.576;2022-09-12T06:08:32;13.40;;;12.00;;
16826;SDS011;8530;49.540;8.576;2022-09-12T06:11:00;17.07;;;8.77;;
16826;SDS011;8530;49.540;8.576;2022-09-12T06:13:27;9.73;;;8.53;;
16826;SDS011;8530;49.540;8.576;2022-09-12T06:16:01;12.60;;;9.60;;
16826;SDS011;8530;49.540;8.576;2022-09-12T06:18:28;8.47;;;7.37;;
16826;SDS011;8530;49.540;8.576;2022-09-12T06:20:55;8.00;;;6.63;;
16826;SDS011;8530;49.540;8.576;2022-09-12T06:23:21;12.87;;;9.63;;
16826;SDS011;8530;49.540;8.576;2022-09-12T06:25:52;9.73;;;8.70;;
16826;SDS011;8530;49.540;8.576;2022-09-12T06:28:19;10.60;;;8.20;;
16826;SDS011;8530;49.540;8.576;2022-09-12T06:30:45;11.83;;;8.33;;
16826;SDS011;8530;49.540;8.576;2022-09-12T06:33:12;10.50;;;7.73;;
16826;SDS011;8530;49.540;8.576;2022-09-12T06:35:39;10.93;;;8.53;;
16826;SDS011;8530;49.540;8.576;2022-09-12T06:38:06;9.70;;;7.93;;
16826;SDS011;8530;49.540;8.576;2022-09-12T06:40:33;8.70;;;7.70;;
16826;SDS011;8530;49.540;8.576;2022-09-12T06:43:02;12.10;;;8.17;;
16826;SDS011;8530;49.540;8.576;2022-09-12T06:45:29;13.37;;;7.67;;
16826;SDS011;8530;49.540;8.576;2022-09-12T06:47:56;11.45;;;7.93;;
16826;SDS011;8530;49.540;8.576;2022-09-12T06:50:23;8.18;;;6.63;;
16826;SDS011;8530;49.540;8.576;2022-09-12T06:52:49;12.40;;;7.85;;
16826;SDS011;8530;49.540;8.576;2022-09-12T06:55:16;9.52;;;6.88;;
16826;SDS011;8530;49.540;8.576;2022-09-12T06:57:43;11.45;;;7.85;;
16826;SDS011;8530;49.540;8.576;2022-09-12T07:00:12;8.50;;;6.85;;
16826;SDS011;8530;49.540;8.576;2022-09-12T07:02:39;9.20;;;7.03;;
16826;SDS011;8530;49.540;8.576;2022-09-12T07:05:06;8.85;;;8.00;;
16826;SDS011;8530;49.540;8.576;2022-09-12T07:07:34;8.50;;;7.65;;
16826;SDS011;8530;49.540;8.576;2022-09-12T07:10:01;8.85;;;7.72;;
16826;SDS011;8530;49.540;8.576;2022-09-12T07:12:28;8.10;;;7.40;;
16826;SDS011;8530;49.540;8.576;2022-09-12T07:14:54;10.45;;;7.65;;
16826;SDS011;8530;49.540;8.576;2022-09-12T07:17:23;13.48;;;8.07;;
16826;SDS011;8530;49.540;8.576;2022-09-12T07:19:49;8.80;;;6.57;;
16826;SDS011;8530;49.540;8.576;2022-09-12T07:22:16;9.70;;;8.27;;
16826;SDS011;8530;49.540;8.576;2022-09-12T07:24:43;11.07;;;8.48;;
16826;SDS011;8530;49.540;8.576;2022-09-12T07:27:10;8.68;;;7.88;;
16826;SDS011;8530;49.540;8.576;2022-09-12T07:29:36;8.50;;;7.57;;
16826;SDS011;8530;49.540;8.576;2022-09-12T07:32:03;11.30;;;7.40;;
16826;SDS011;8530;49.540;8.576;2022-09-12T07:34:33;9.10;;;7.55;;
16826;SDS011;8530;49.540;8.576;2022-09-12T07:37:00;7.80;;;6.72;;
16826;SDS011;8530;49.540;8.576;2022-09-12T07:39:26;8.30;;;7.22;;
16826;SDS011;8530;49.540;8.576;2022-09-12T07:41:53;7.45;;;6.72;;
16826;SDS011;8530;49.540;8.576;2022-09-12T07:44:21;6.90;;;6.20;;
16826;SDS011;8530;49.540;8.576;2022-09-12T07:46:48;10.68;;;6.35;;
16826;SDS011;8530;49.540;8.576;2022-09-12T07:49:16;9.20;;;5.97;;
16826;SDS011;8530;49.540;8.576;2022-09-12T07:51:44;8.35;;;7.30;;
16826;SDS011;8530;49.540;8.576;2022-09-12T07:54:10;7.55;;;6.88;;
16826;SDS011;8530;49.540;8.576;2022-09-12T07:56:37;7.30;;;6.18;;
16826;SDS011;8530;49.540;8.576;2022-09-12T07:59:04;8.18;;;7.38;;
16826;SDS011;8530;49.540;8.576;2022-09-12T08:01:31;6.00;;;5.50;;
16826;SDS011;8530;49.540;8.576;2022-09-12T08:03:58;8.60;;;6.35;;
16826;SDS011;8530;49.540;8.576;2022-09-12T08:06:26;5.95;;;5.20;;
16826;SDS011;8530;49.540;8.576;2022-09-12T08:08:57;6.53;;;5.93;;
16826;SDS011;8530;49.540;8.576;2022-09-12T08:11:26;7.97;;;7.07;;
16826;SDS011;8530;49.540;8.576;2022-09-12T08:13:54;9.10;;;7.35;;
16826;SDS011;8530;49.540;8.576;2022-09-12T08:16:23;7.45;;;6.72;;
16826;SDS011;8530;49.540;8.576;2022-09-12T08:18:51;7.20;;;6.50;;
16826;SDS011;8530;49.540;8.576;2022-09-12T08:21:18;7.07;;;6.38;;
16826;SDS011;8530;49.540;8.576;2022-09-12T08:23:46;12.60;;;6.50;;
16826;SDS011;8530;49.540;8.576;2022-09-12T08:26:18;6.68;;;5.97;;
16826;SDS011;8530;49.540;8.576;2022-09-12T08:28:45;7.30;;;6.32;;
16826;SDS011;8530;49.540;8.576;2022-09-12T08:31:12;7.85;;;7.10;;
16826;SDS011;8530;49.540;8.576;2022-09-12T08:33:40;7.25;;;6.55;;
16826;SDS011;8530;49.540;8.576;2022-09-12T08:36:09;8.07;;;6.80;;
16826;SDS011;8530;49.540;8.576;2022-09-12T08:38:38;6.60;;;6.00;;
16826;SDS011;8530;49.540;8.576;2022-09-12T08:41:07;8.40;;;6.90;;
16826;SDS011;8530;49.540;8.576;2022-09-12T08:43:47;8.10;;;7.10;;
16826;SDS011;8530;49.540;8.576;2022-09-12T08:46:31;8.05;;;7.25;;
16826;SDS011;8530;49.540;8.576;2022-09-12T08:49:02;9.43;;;8.43;;
16826;SDS011;8530;49.540;8.576;2022-09-12T08:51:31;10.33;;;7.70;;
16826;SDS011;8530;49.540;8.576;2022-09-12T08:53:59;13.10;;;8.03;;
16826;SDS011;8530;49.540;8.576;2022-09-12T08:56:27;9.23;;;7.83;;
16826;SDS011;8530;49.540;8.576;2022-09-12T08:58:58;11.93;;;8.30;;
16826;SDS011;8530;49.540;8.576;2022-09-12T09:01:27;9.17;;;7.80;;
16826;SDS011;8530;49.540;8.576;2022-09-12T09:04:03;8.60;;;7.70;;
16826;SDS011;8530;49.540;8.576;2022-09-12T09:06:48;7.83;;;6.77;;
16826;SDS011;8530;49.540;8.576;2022-09-12T09:09:25;8.93;;;7.03;;
16826;SDS011;8530;49.540;8.576;2022-09-12T09:12:04;9.37;;;7.83;;
16826;SDS011;8530;49.540;8.576;2022-09-12T09:17:39;7.87;;;7.17;;
16826;SDS011;8530;49.540;8.576;2022-09-12T09:20:11;8.53;;;7.60;;
16826;SDS011;8530;49.540;8.576;2022-09-12T09:22:46;14.33;;;6.63;;
16826;SDS011;8530;49.540;8.576;2022-09-12T09:25:18;8.30;;;7.33;;
16826;SDS011;8530;49.540;8.576;2022-09-12T09:27:50;7.10;;;6.40;;
16826;SDS011;8530;49.540;8.576;2022-09-12T09:30:22;6.30;;;5.50;;
16826;SDS011;8530;49.540;8.576;2022-09-12T09:32:49;9.17;;;6.57;;
16826;SDS011;8530;49.540;8.576;2022-09-12T09:35:21;6.20;;;5.60;;
16826;SDS011;8530;49.540;8.576;2022-09-12T09:37:59;6.60;;;5.43;;
16826;SDS011;8530;49.540;8.576;2022-09-12T09:40:30;10.73;;;7.93;;
16826;SDS011;8530;49.540;8.576;2022-09-12T09:43:09;24.90;;;22.53;;
16826;SDS011;8530;49.540;8.576;2022-09-12T09:45:43;9.50;;;8.60;;
16826;SDS011;8530;49.540;8.576;2022-09-12T09:48:13;7.70;;;6.40;;
16826;SDS011;8530;49.540;8.576;2022-09-12T09:50:42;7.20;;;6.47;;
16826;SDS011;8530;49.540;8.576;2022-09-12T09:53:11;11.23;;;8.10;;
16826;SDS011;8530;49.540;8.576;2022-09-12T09:55:50;7.90;;;7.10;;
16826;SDS011;8530;49.540;8.576;2022-09-12T09:58:27;18.17;;;7.20;;
16826;SDS011;8530;49.540;8.576;2022-09-12T10:00:58;8.40;;;6.40;;
16826;SDS011;8530;49.540;8.576;2022-09-12T10:03:32;5.40;;;4.90;;
16826;SDS011;8530;49.540;8.576;2022-09-12T10:06:05;9.70;;;7.00;;
16826;SDS011;8530;49.540;8.576;2022-09-12T10:08:33;10.43;;;9.43;;
16826;SDS011;8530;49.540;8.576;2022-09-12T10:11:03;13.17;;;9.37;;
16826;SDS011;8530;49.540;8.576;2022-09-12T10:13:35;8.93;;;7.83;;
16826;SDS011;8530;49.540;8.576;2022-09-12T10:16:16;9.43;;;8.33;;
16826;SDS011;8530;49.540;8.576;2022-09-12T10:18:44;9.70;;;7.60;;
16826;SDS011;8530;49.540;8.576;2022-09-12T10:21:12;9.10;;;7.20;;
16826;SDS011;8530;49.540;8.576;2022-09-12T10:23:49;11.67;;;8.13;;
16826;SDS011;8530;49.540;8.576;2022-09-12T10:26:19;9.63;;;7.73;;
16826;SDS011;8530;49.540;8.576;2022-09-12T10:28:48;9.23;;;6.10;;
16826;SDS011;8530;49.540;8.576;2022-09-12T10:31:23;7.70;;;6.67;;
16826;SDS011;8530;49.540;8.576;2022-09-12T10:33:53;8.17;;;6.03;;
16826;SDS011;8530;49.540;8.576;2022-09-12T10:36:22;8.80;;;6.03;;
16826;SDS011;8530;49.540;8.576;2022-09-12T10:38:50;6.00;;;4.70;;
16826;SDS011;8530;49.540;8.576;2022-09-12T10:41:19;6.77;;;4.67;;
16826;SDS011;8530;49.540;8.576;2022-09-12T10:43:46;7.00;;;5.17;;
16826;SDS011;8530;49.540;8.576;2022-09-12T10:49:19;8.30;;;4.80;;
16826;SDS011;8530;49.540;8.576;2022-09-12T10:51:47;5.73;;;5.13;;
16826;SDS011;8530;49.540;8.576;2022-09-12T10:54:15;13.30;;;5.43;;
16826;SDS011;8530;49.540;8.576;2022-09-12T10:56:46;6.50;;;4.73;;
16826;SDS011;8530;49.540;8.576;2022-09-12T10:59:23;5.80;;;5.20;;
16826;SDS011;8530;49.540;8.576;2022-09-12T11:01:58;5.30;;;4.40;;
16826;SDS011;8530;49.540;8.576;2022-09-12T11:04:28;5.80;;;4.83;;
16826;SDS011;8530;49.540;8.576;2022-09-12T11:07:14;5.27;;;4.70;;
16826;SDS011;8530;49.540;8.576;2022-09-12T11:09:53;7.80;;;6.17;;
16826;SDS011;8530;49.540;8.576;2022-09-12T11:12:28;6.90;;;5.23;;
16826;SDS011;8530;49.540;8.576;2022-09-12T11:15:04;9.40;;;7.23;;
16826;SDS011;8530;49.540;8.576;2022-09-12T11:17:51;6.50;;;5.90;;
16826;SDS011;8530;49.540;8.576;2022-09-12T11:20:31;9.40;;;6.40;;
16826;SDS011;8530;49.540;8.576;2022-09-12T11:23:32;8.23;;;3.97;;
16826;SDS011;8530;49.540;8.576;2022-09-12T11:26:33;4.33;;;3.90;;
16826;SDS011;8530;49.540;8.576;2022-09-12T11:29:15;4.77;;;4.20;;
16826;SDS011;8530;49.540;8.576;2022-09-12T11:31:58;7.20;;;4.80;;
16826;SDS011;8530;49.540;8.576;2022-09-12T11:34:45;6.30;;;4.10;;
16826;SDS011;8530;49.540;8.576;2022-09-12T11:37:31;6.37;;;4.50;;
16826;SDS011;8530;49.540;8.576;2022-09-12T11:40:12;4.10;;;3.70;;
16826;SDS011;8530;49.540;8.576;2022-09-12T11:42:50;4.30;;;3.90;;
16826;SDS011;8530;49.540;8.576;2022-09-12T11:45:21;4.03;;;3.43;;
16826;SDS011;8530;49.540;8.576;2022-09-12T11:47:53;3.57;;;3.17;;
16826;SDS011;8530;49.540;8.576;2022-09-12T11:50:27;5.10;;;4.23;;
16826;SDS011;8530;49.540;8.576;2022-09-12T11:52:56;5.73;;;3.80;;
16826;SDS011;8530;49.540;8.576;2022-09-12T11:55:30;5.43;;;3.80;;
16826;SDS011;8530;49.540;8.576;2022-09-12T11:58:03;4.00;;;3.60;;
16826;SDS011;8530;49.540;8.576;2022-09-12T12:00:30;4.33;;;3.67;;
16826;SDS011;8530;49.540;8.576;2022-09-12T12:03:02;3.77;;;3.30;;
16826;SDS011;8530;49.540;8.576;2022-09-12T12:05:34;4.30;;;3.80;;
16826;SDS011;8530;49.540;8.576;2022-09-12T12:08:07;3.40;;;3.10;;
16826;SDS011;8530;49.540;8.576;2022-09-12T12:10:35;3.90;;;2.90;;
16826;SDS011;8530;49.540;8.576;2022-09-12T12:13:06;4.90;;;2.63;;
16826;SDS011;8530;49.540;8.576;2022-09-12T12:15:43;3.50;;;3.20;;
16826;SDS011;8530;49.540;8.576;2022-09-12T12:18:14;2.97;;;2.67;;
16826;SDS011;8530;49.540;8.576;2022-09-12T12:20:46;5.87;;;3.73;;
16826;SDS011;8530;49.540;8.576;2022-09-12T12:23:23;5.07;;;2.80;;
16826;SDS011;8530;49.540;8.576;2022-09-12T12:25:52;4.10;;;3.70;;
16826;SDS011;8530;49.540;8.576;2022-09-12T12:31:22;3.70;;;3.20;;
16826;SDS011;8530;49.540;8.576;2022-09-12T12:33:54;3.27;;;2.83;;
16826;SDS011;8530;49.540;8.576;2022-09-12T12:36:47;3.43;;;2.50;;
16826;SDS011;8530;49.540;8.576;2022-09-12T12:48:33;2.93;;;2.50;;
16826;SDS011;8530;49.540;8.576;2022-09-12T12:51:32;3.70;;;2.07;;
16826;SDS011;8530;49.540;8.576;2022-09-12T12:57:20;2.47;;;2.27;;
16826;SDS011;8530;49.540;8.576;2022-09-12T12:59:54;3.70;;;2.50;;
16826;SDS011;8530;49.540;8.576;2022-09-12T13:02:26;3.70;;;2.20;;
16826;SDS011;8530;49.540;8.576;2022-09-12T13:04:57;6.70;;;2.53;;
16826;SDS011;8530;49.540;8.576;2022-09-12T13:07:27;3.30;;;2.80;;
16826;SDS011;8530;49.540;8.576;2022-09-12T13:09:57;3.13;;;2.13;;
16826;SDS011;8530;49.540;8.576;2022-09-12T13:12:28;2.80;;;2.50;;
16826;SDS011;8530;49.540;8.576;2022-09-12T13:14:57;2.83;;;2.40;;
16826;SDS011;8530;49.540;8.576;2022-09-12T13:17:30;2.63;;;2.13;;
16826;SDS011;8530;49.540;8.576;2022-09-12T13:20:05;2.27;;;2.07;;
16826;SDS011;8530;49.540;8.576;2022-09-12T13:22:42;2.13;;;1.73;;
16826;SDS011;8530;49.540;8.576;2022-09-12T13:25:23;2.13;;;1.87;;
16826;SDS011;8530;49.540;8.576;2022-09-12T13:27:57;4.63;;;1.90;;
16826;SDS011;8530;49.540;8.576;2022-09-12T13:30:26;2.10;;;1.90;;
16826;SDS011;8530;49.540;8.576;2022-09-12T13:32:55;4.63;;;2.93;;
16826;SDS011;8530;49.540;8.576;2022-09-12T13:35:26;4.13;;;2.80;;
16826;SDS011;8530;49.540;8.576;2022-09-12T13:38:02;4.07;;;3.10;;
16826;SDS011;8530;49.540;8.576;2022-09-12T13:40:35;3.70;;;2.60;;
16826;SDS011;8530;49.540;8.576;2022-09-12T13:43:13;5.73;;;2.53;;
16826;SDS011;8530;49.540;8.576;2022-09-12T13:45:42;3.27;;;2.40;;
16826;SDS011;8530;49.540;8.576;2022-09-12T13:48:12;2.23;;;1.90;;
16826;SDS011;8530;49.540;8.576;2022-09-12T13:50:49;3.17;;;2.60;;
16826;SDS011;8530;49.540;8.576;2022-09-12T13:53:18;3.40;;;2.70;;
16826;SDS011;8530;49.540;8.576;2022-09-12T13:55:47;4.27;;;2.20;;
16826;SDS011;8530;49.540;8.576;2022-09-12T13:58:20;2.53;;;2.33;;
16826;SDS011;8530;49.540;8.576;2022-09-12T14:00:59;4.00;;;2.50;;
16826;SDS011;8530;49.540;8.576;2022-09-12T14:03:27;2.70;;;2.30;;
16826;SDS011;8530;49.540;8.576;2022-09-12T14:06:13;5.20;;;2.20;;
16826;SDS011;8530;49.540;8.576;2022-09-12T14:08:42;6.43;;;2.43;;
16826;SDS011;8530;49.540;8.576;2022-09-12T14:11:14;3.33;;;2.80;;
16826;SDS011;8530;49.540;8.576;2022-09-12T14:13:49;6.50;;;2.50;;
16826;SDS011;8530;49.540;8.576;2022-09-12T14:16:16;4.07;;;2.83;;
16826;SDS011;8530;49.540;8.576;2022-09-12T14:18:45;5.27;;;3.83;;
16826;SDS011;8530;49.540;8.576;2022-09-12T14:21:15;3.50;;;3.20;;
16826;SDS011;8530;49.540;8.576;2022-09-12T14:24:00;4.63;;;2.57;;
16826;SDS011;8530;49.540;8.576;2022-09-12T14:26:29;2.40;;;2.10;;
16826;SDS011;8530;49.540;8.576;2022-09-12T14:29:00;3.40;;;2.37;;
16826;SDS011;8530;49.540;8.576;2022-09-12T14:31:31;3.67;;;2.27;;
16826;SDS011;8530;49.540;8.576;2022-09-12T14:34:07;1.93;;;1.73;;
16826;SDS011;8530;49.540;8.576;2022-09-12T14:36:38;2.40;;;2.10;;
16826;SDS011;8530;49.540;8.576;2022-09-12T14:39:14;2.20;;;2.00;;
16826;SDS011;8530;49.540;8.576;2022-09-12T14:41:48;2.83;;;2.27;;
16826;SDS011;8530;49.540;8.576;2022-09-12T14:44:18;3.20;;;2.10;;
16826;SDS011;8530;49.540;8.576;2022-09-12T14:46:48;3.17;;;2.17;;
16826;SDS011;8530;49.540;8.576;2022-09-12T14:49:15;2.57;;;2.10;;
16826;SDS011;8530;49.540;8.576;2022-09-12T14:51:47;2.00;;;1.80;;
16826;SDS011;8530;49.540;8.576;2022-09-12T14:54:33;2.40;;;1.90;;
16826;SDS011;8530;49.540;8.576;2022-09-12T14:57:02;1.93;;;1.60;;
16826;SDS011;8530;49.540;8.576;2022-09-12T14:59:35;3.60;;;1.77;;
16826;SDS011;8530;49.540;8.576;2022-09-12T15:04:52;2.80;;;2.60;;
16826;SDS011;8530;49.540;8.576;2022-09-12T15:07:40;2.17;;;1.90;;
16826;SDS011;8530;49.540;8.576;2022-09-12T15:10:15;2.50;;;2.27;;
16826;SDS011;8530;49.540;8.576;2022-09-12T15:12:46;2.60;;;2.40;;
16826;SDS011;8530;49.540;8.576;2022-09-12T15:15:14;3.40;;;2.40;;
16826;SDS011;8530;49.540;8.576;2022-09-12T15:17:42;4.17;;;2.27;;
16826;SDS011;8530;49.540;8.576;2022-09-12T15:20:09;2.03;;;1.83;;
16826;SDS011;8530;49.540;8.576;2022-09-12T15:22:37;3.50;;;2.00;;
16826;SDS011;8530;49.540;8.576;2022-09-12T15:25:05;2.77;;;2.27;;
16826;SDS011;8530;49.540;8.576;2022-09-12T15:27:33;2.30;;;2.10;;
16826;SDS011;8530;49.540;8.576;2022-09-12T15:29:59;3.10;;;2.40;;
16826;SDS011;8530;49.540;8.576;2022-09-12T15:32:28;3.40;;;2.20;;
16826;SDS011;8530;49.540;8.576;2022-09-12T15:34:55;2.70;;;2.33;;
16826;SDS011;8530;49.540;8.576;2022-09-12T15:37:22;4.10;;;2.03;;
16826;SDS011;8530;49.540;8.576;2022-09-12T15:39:49;7.73;;;2.37;;
16826;SDS011;8530;49.540;8.576;2022-09-12T15:42:17;4.20;;;2.10;;